createdAt,value
2023-06-17T00:00:04.040Z,17.70
2023-06-17T00:01:04.103Z,17.69
2023-06-17T00:02:04.111Z,17.66
2023-06-17T00:03:04.288Z,17.64
2023-06-17T00:04:04.412Z,17.63
2023-06-17T00:05:04.375Z,17.63
2023-06-17T00:06:04.455Z,17.62
2023-06-17T00:07:04.611Z,17.59
2023-06-17T00:08:04.668Z,17.59
2023-06-17T00:09:04.676Z,17.57
2023-06-17T00:10:04.752Z,17.59
2023-06-17T00:11:04.857Z,17.57
2023-06-17T00:12:04.908Z,17.55
2023-06-17T00:13:05.008Z,17.55
2023-06-17T00:14:05.063Z,17.55
2023-06-17T00:15:05.234Z,17.55
2023-06-17T00:16:05.271Z,17.54
2023-06-17T00:17:05.323Z,17.54
2023-06-17T00:18:05.476Z,17.54
2023-06-17T00:19:05.535Z,17.53
2023-06-17T00:20:05.595Z,17.53
2023-06-17T00:21:05.687Z,17.50
2023-06-17T00:22:05.752Z,17.50
2023-06-17T00:23:05.840Z,17.48
2023-06-17T00:24:05.926Z,17.46
2023-06-17T00:25:06.026Z,17.47
2023-06-17T00:26:06.066Z,17.46
2023-06-17T00:27:06.182Z,17.46
2023-06-17T00:28:06.198Z,17.43
2023-06-17T00:29:06.265Z,17.41
2023-06-17T00:30:06.368Z,17.40
2023-06-17T00:31:06.437Z,17.40
2023-06-17T00:32:06.500Z,17.36
2023-06-17T00:33:06.613Z,17.36
2023-06-17T00:34:06.686Z,17.36
2023-06-17T00:35:06.873Z,17.35
2023-06-17T00:36:06.870Z,17.33
2023-06-17T00:37:06.898Z,17.32
2023-06-17T00:38:07.000Z,17.32
2023-06-17T00:39:07.075Z,17.29
2023-06-17T00:40:07.191Z,17.29
2023-06-17T00:41:07.219Z,17.28
2023-06-17T00:42:07.367Z,17.25
2023-06-17T00:43:07.389Z,17.25
2023-06-17T00:44:07.471Z,17.23
2023-06-17T00:45:07.597Z,17.23
2023-06-17T00:46:07.652Z,17.22
2023-06-17T00:47:07.690Z,17.23
2023-06-17T00:48:07.851Z,17.25
2023-06-17T00:49:07.888Z,17.26
2023-06-17T00:50:07.993Z,17.26
2023-06-17T00:51:08.041Z,17.26
2023-06-17T00:52:24.004Z,17.25
2023-06-17T00:53:08.221Z,17.23
2023-06-17T00:54:08.277Z,17.22
2023-06-17T00:55:08.402Z,17.20
2023-06-17T00:56:08.453Z,17.18
2023-06-17T00:57:08.549Z,17.15
2023-06-17T00:58:08.657Z,17.14
2023-06-17T00:59:08.725Z,17.13
2023-06-17T01:00:08.877Z,17.13
2023-06-17T01:01:08.901Z,17.14
2023-06-17T01:02:08.958Z,17.14
2023-06-17T01:03:09.103Z,17.14
2023-06-17T01:04:09.244Z,17.15
2023-06-17T01:05:09.279Z,17.18
2023-06-17T01:06:09.334Z,17.18
2023-06-17T01:07:09.443Z,17.20
2023-06-17T01:08:09.524Z,17.20
2023-06-17T01:09:09.567Z,17.20
2023-06-17T01:10:09.776Z,17.20
2023-06-17T01:11:09.763Z,17.22
2023-06-17T01:12:09.845Z,17.18
2023-06-17T01:13:09.917Z,17.20
2023-06-17T01:14:10.002Z,17.15
2023-06-17T01:15:10.092Z,17.15
2023-06-17T01:16:10.172Z,17.11
2023-06-17T01:17:10.334Z,17.11
2023-06-17T01:18:10.447Z,17.11
2023-06-17T01:19:10.413Z,17.10
2023-06-17T01:20:10.520Z,17.10
2023-06-17T01:21:10.593Z,17.10
2023-06-17T01:22:10.651Z,17.10
2023-06-17T01:23:10.708Z,17.08
2023-06-17T01:24:10.833Z,17.06
2023-06-17T01:25:10.902Z,17.06
2023-06-17T01:26:10.970Z,17.04
2023-06-17T01:27:11.035Z,17.03
2023-06-17T01:28:11.165Z,16.98
2023-06-17T01:29:11.240Z,16.98
2023-06-17T01:30:11.324Z,16.93
2023-06-17T01:31:11.377Z,16.89
2023-06-17T01:32:11.507Z,16.88
2023-06-17T01:33:11.573Z,16.85
2023-06-17T01:34:11.648Z,16.85
2023-06-17T01:35:11.755Z,16.83
2023-06-17T01:36:11.818Z,16.81
2023-06-17T01:37:11.913Z,16.80
2023-06-17T01:38:12.002Z,16.80
2023-06-17T01:39:12.046Z,16.78
2023-06-17T01:40:12.195Z,16.77
2023-06-17T01:41:12.240Z,16.75
2023-06-17T01:42:12.333Z,16.73
2023-06-17T01:43:12.406Z,16.71
2023-06-17T01:44:12.482Z,16.71
2023-06-17T01:45:12.578Z,16.71
2023-06-17T01:46:12.802Z,16.70
2023-06-17T01:47:12.713Z,16.70
2023-06-17T01:48:12.769Z,16.70
2023-06-17T01:49:12.836Z,16.65
2023-06-17T01:50:12.980Z,16.62
2023-06-17T01:51:13.008Z,16.60
2023-06-17T01:52:13.130Z,16.60
2023-06-17T01:53:13.185Z,16.60
2023-06-17T01:54:13.257Z,16.59
2023-06-17T01:55:13.353Z,16.60
2023-06-17T01:56:13.426Z,16.59
2023-06-17T01:57:13.484Z,16.58
2023-06-17T01:58:13.611Z,16.56
2023-06-17T01:59:13.683Z,16.53
2023-06-17T02:00:13.793Z,16.52
2023-06-17T02:01:13.865Z,16.48
2023-06-17T02:02:13.950Z,16.48
2023-06-17T02:03:14.151Z,16.45
2023-06-17T02:04:14.125Z,16.45
2023-06-17T02:05:14.224Z,16.45
2023-06-17T02:06:14.289Z,16.45
2023-06-17T02:07:14.345Z,16.45
2023-06-17T02:08:14.473Z,16.45
2023-06-17T02:09:14.531Z,16.44
2023-06-17T02:10:14.663Z,16.44
2023-06-17T02:11:14.742Z,16.42
2023-06-17T02:12:14.811Z,16.40
2023-06-17T02:13:14.858Z,16.38
2023-06-17T02:14:14.977Z,16.38
2023-06-17T02:15:15.074Z,16.35
2023-06-17T02:16:15.186Z,16.37
2023-06-17T02:17:15.214Z,16.35
2023-06-17T02:18:15.355Z,16.35
2023-06-17T02:19:15.369Z,16.37
2023-06-17T02:20:15.460Z,16.35
2023-06-17T02:21:15.527Z,16.35
2023-06-17T02:22:15.625Z,16.35
2023-06-17T02:23:15.704Z,16.35
2023-06-17T02:24:15.849Z,16.35
2023-06-17T02:25:15.867Z,16.37
2023-06-17T02:26:15.928Z,16.35
2023-06-17T02:27:16.030Z,16.35
2023-06-17T02:28:16.095Z,16.38
2023-06-17T02:29:16.169Z,16.40
2023-06-17T02:30:16.262Z,16.42
2023-06-17T02:31:16.383Z,16.42
2023-06-17T02:32:16.410Z,16.42
2023-06-17T02:33:16.471Z,16.42
2023-06-17T02:34:16.574Z,16.45
2023-06-17T02:35:16.674Z,16.44
2023-06-17T02:36:16.756Z,16.45
2023-06-17T02:37:16.844Z,16.48
2023-06-17T02:38:16.921Z,16.48
2023-06-17T02:39:16.986Z,16.45
2023-06-17T02:40:17.103Z,16.45
2023-06-17T02:41:17.181Z,16.44
2023-06-17T02:42:17.301Z,16.45
2023-06-17T02:43:17.325Z,16.44
2023-06-17T02:44:17.452Z,16.44
2023-06-17T02:45:17.551Z,16.42
2023-06-17T02:46:17.652Z,16.44
2023-06-17T02:47:17.688Z,16.44
2023-06-17T02:48:17.790Z,16.45
2023-06-17T02:49:17.863Z,16.45
2023-06-17T02:50:18.044Z,16.48
2023-06-17T02:51:17.991Z,16.49
2023-06-17T02:52:18.102Z,16.49
2023-06-17T02:53:18.171Z,16.49
2023-06-17T02:54:18.275Z,16.50
2023-06-17T02:55:18.348Z,16.49
2023-06-17T02:56:18.412Z,16.50
2023-06-17T02:57:18.572Z,16.49
2023-06-17T02:58:18.536Z,16.48
2023-06-17T02:59:18.592Z,16.45
2023-06-17T03:00:19.011Z,16.44
2023-06-17T03:01:18.846Z,16.42
2023-06-17T03:02:18.924Z,16.41
2023-06-17T03:03:19.164Z,16.40
2023-06-17T03:04:19.015Z,16.38
2023-06-17T03:05:19.160Z,16.37
2023-06-17T03:06:19.262Z,16.35
2023-06-17T03:07:19.305Z,16.35
2023-06-17T03:08:19.404Z,16.34
2023-06-17T03:09:19.464Z,16.34
2023-06-17T03:10:19.921Z,16.33
2023-06-17T03:11:19.618Z,16.33
2023-06-17T03:12:19.731Z,16.33
2023-06-17T03:13:19.778Z,16.34
2023-06-17T03:14:19.821Z,16.31
2023-06-17T03:15:19.906Z,16.31
2023-06-17T03:24:58.792Z,15.84
2023-06-17T03:25:56.426Z,15.84
2023-06-17T03:26:57.134Z,15.84
2023-06-17T03:30:38.307Z,15.82
2023-06-17T03:30:43.764Z,15.81
2023-06-17T03:31:43.878Z,15.79
2023-06-17T03:32:44.049Z,15.82
2023-06-17T03:35:47.816Z,15.81
2023-06-17T03:36:50.497Z,15.81
2023-06-17T03:37:48.734Z,15.81
2023-06-17T03:38:48.825Z,15.81
2023-06-17T03:39:48.887Z,15.84
2023-06-17T03:40:48.961Z,15.88
2023-06-17T03:41:49.049Z,15.89
2023-06-17T03:42:49.136Z,15.92
2023-06-17T03:43:49.202Z,15.94
2023-06-17T03:44:49.305Z,15.96
2023-06-17T03:45:49.388Z,15.96
2023-06-17T03:46:49.452Z,15.96
2023-06-17T03:47:49.597Z,15.99
2023-06-17T03:48:49.607Z,15.97
2023-06-17T03:49:49.683Z,15.97
2023-06-17T03:50:49.741Z,15.97
2023-06-17T03:51:49.810Z,15.97
2023-06-17T03:52:49.940Z,15.94
2023-06-17T03:53:50.027Z,15.93
2023-06-17T03:54:50.100Z,15.93
2023-06-17T03:55:50.231Z,15.93
2023-06-17T03:56:50.285Z,15.92
2023-06-17T03:57:50.417Z,15.93
2023-06-17T03:58:50.488Z,15.93
2023-06-17T03:59:50.528Z,15.92
2023-06-17T04:00:50.637Z,15.93
2023-06-17T04:01:50.724Z,15.93
2023-06-17T04:02:51.007Z,15.94
2023-06-17T04:03:50.944Z,15.96
2023-06-17T04:04:50.996Z,15.97
2023-06-17T04:05:51.058Z,15.99
2023-06-17T04:06:51.197Z,16.01
2023-06-17T04:07:51.240Z,16.03
2023-06-17T04:08:51.378Z,16.06
2023-06-17T04:10:51.520Z,16.09
2023-06-17T04:11:51.558Z,16.12
2023-06-17T04:12:51.691Z,16.15
2023-06-17T04:13:51.783Z,16.16
2023-06-17T04:14:51.841Z,16.16
2023-06-17T04:15:51.961Z,16.15
2023-06-17T04:32:36.612Z,15.60
2023-06-17T04:33:38.840Z,15.60
2023-06-17T04:34:36.439Z,15.63
2023-06-17T04:35:36.514Z,15.67
2023-06-17T04:36:36.573Z,15.68
2023-06-17T04:37:36.694Z,15.75
2023-06-17T04:38:36.737Z,15.78
2023-06-17T04:39:36.922Z,15.81
2023-06-17T04:40:36.890Z,15.84
2023-06-17T04:41:36.982Z,15.88
2023-06-17T04:42:37.065Z,15.93
2023-06-17T04:43:37.195Z,15.94
2023-06-17T04:44:37.233Z,15.99
2023-06-17T04:45:37.335Z,16.00
2023-06-17T04:46:37.404Z,16.03
2023-06-17T04:47:37.575Z,16.07
2023-06-17T04:48:37.507Z,16.11
2023-06-17T04:53:24.614Z,16.04
2023-06-17T04:54:25.632Z,16.03
2023-06-17T04:55:25.674Z,16.03
2023-06-17T04:56:25.775Z,16.03
2023-06-17T04:57:25.825Z,16.04
2023-06-17T04:58:25.809Z,16.07
2023-06-17T04:59:25.910Z,16.11
2023-06-17T05:00:26.164Z,16.12
2023-06-17T05:01:26.118Z,16.15
2023-06-17T05:02:26.165Z,16.18
2023-06-17T05:03:26.224Z,16.20
2023-06-17T05:04:26.266Z,16.22
2023-06-17T05:05:26.391Z,16.23
2023-06-17T05:06:26.465Z,16.25
2023-06-17T05:07:26.536Z,16.27
2023-06-17T05:08:26.615Z,16.27
2023-06-17T05:09:26.712Z,16.31
2023-06-17T05:10:26.807Z,16.33
2023-06-17T05:11:26.832Z,16.35
2023-06-17T05:12:26.897Z,16.35
2023-06-17T05:13:26.999Z,16.37
2023-06-17T05:14:27.110Z,16.37
2023-06-17T05:15:27.205Z,16.37
2023-06-17T05:16:27.277Z,16.40
2023-06-17T05:17:27.346Z,16.38
2023-06-17T05:18:27.403Z,16.40
2023-06-17T05:19:27.467Z,16.41
2023-06-17T05:20:27.556Z,16.42
2023-06-17T05:21:27.637Z,16.42
2023-06-17T05:22:27.718Z,16.42
2023-06-17T05:23:27.793Z,16.45
2023-06-17T05:24:27.919Z,16.45
2023-06-17T05:25:27.958Z,16.48
2023-06-17T05:26:27.991Z,16.49
2023-06-17T05:27:28.104Z,16.50
2023-06-17T05:28:28.164Z,16.52
2023-06-17T05:29:28.262Z,16.53
2023-06-17T05:30:28.406Z,16.53
2023-06-17T05:31:28.413Z,16.55
2023-06-17T05:32:28.520Z,16.56
2023-06-17T05:33:28.601Z,16.59
2023-06-17T05:34:28.650Z,16.58
2023-06-17T05:35:28.810Z,16.58
2023-06-17T05:36:28.858Z,16.59
2023-06-17T05:37:28.943Z,16.60
2023-06-17T05:38:29.019Z,16.60
2023-06-17T05:39:29.125Z,16.62
2023-06-17T05:40:29.204Z,16.65
2023-06-17T05:41:29.263Z,16.62
2023-06-17T05:42:29.362Z,16.63
2023-06-17T05:43:29.483Z,16.63
2023-06-17T05:44:29.522Z,16.65
2023-06-17T05:45:29.605Z,16.67
2023-06-17T05:46:29.720Z,16.67
2023-06-17T05:47:29.750Z,16.67
2023-06-17T05:48:29.823Z,16.67
2023-06-17T05:49:29.923Z,16.67
2023-06-17T05:50:29.987Z,16.68
2023-06-17T05:51:30.064Z,16.71
2023-06-17T05:52:30.164Z,16.70
2023-06-17T05:53:30.290Z,16.70
2023-06-17T05:54:30.349Z,16.68
2023-06-17T05:55:30.389Z,16.68
2023-06-17T05:56:30.506Z,16.70
2023-06-17T05:57:30.524Z,16.70
2023-06-17T05:58:30.628Z,16.70
2023-06-17T05:59:30.764Z,16.71
2023-06-17T06:00:30.807Z,16.71
2023-06-17T06:01:30.992Z,16.71
2023-06-17T06:02:30.998Z,16.71
2023-06-17T06:03:31.071Z,16.71
2023-06-17T06:04:31.127Z,16.74
2023-06-17T06:05:31.219Z,16.73
2023-06-17T06:06:33.801Z,16.74
2023-06-17T06:07:31.349Z,16.75
2023-06-17T06:08:31.445Z,16.74
2023-06-17T06:09:31.588Z,16.77
2023-06-17T06:12:09.727Z,16.78
2023-06-17T06:13:10.756Z,16.81
2023-06-17T06:14:10.784Z,16.83
2023-06-17T06:15:10.890Z,16.81
2023-06-17T06:16:10.979Z,16.81
2023-06-17T06:17:11.044Z,16.83
2023-06-17T06:18:11.282Z,16.85
2023-06-17T06:19:11.185Z,16.86
2023-06-17T06:20:11.285Z,16.89
2023-06-17T06:21:11.321Z,16.89
2023-06-17T06:22:11.387Z,16.92
2023-06-17T06:23:11.485Z,16.92
2023-06-17T06:24:11.607Z,16.92
2023-06-17T06:25:11.697Z,16.92
2023-06-17T06:26:11.784Z,16.93
2023-06-17T06:27:11.846Z,16.93
2023-06-17T06:28:11.923Z,16.96
2023-06-17T06:29:12.009Z,16.96
2023-06-17T06:30:12.072Z,16.99
2023-06-17T06:31:12.231Z,17.00
2023-06-17T06:32:12.403Z,17.03
2023-06-17T06:33:12.391Z,17.04
2023-06-17T06:34:12.432Z,17.07
2023-06-17T06:35:12.632Z,17.08
2023-06-17T06:38:45.196Z,17.07
2023-06-17T06:39:44.630Z,17.04
2023-06-17T06:40:44.323Z,17.04
2023-06-17T06:41:44.401Z,17.06
2023-06-17T06:48:27.804Z,16.92
2023-06-17T06:49:28.777Z,16.90
2023-06-17T06:50:29.039Z,16.90
2023-06-17T06:51:28.967Z,16.92
2023-06-17T06:52:28.969Z,16.96
2023-06-17T06:53:29.041Z,16.98
2023-06-17T06:54:29.105Z,17.00
2023-06-17T06:55:29.159Z,17.04
2023-06-17T06:56:29.321Z,17.07
2023-06-17T06:57:29.358Z,17.10
2023-06-17T06:58:29.462Z,17.13
2023-06-17T06:59:29.505Z,17.15
2023-06-17T07:00:29.986Z,17.17
2023-06-17T07:06:34.401Z,17.13
2023-06-17T07:07:35.250Z,17.14
2023-06-17T07:08:36.301Z,17.14
2023-06-17T07:09:35.343Z,17.15
2023-06-17T07:10:35.411Z,17.18
2023-06-17T07:11:35.585Z,17.22
2023-06-17T07:16:41.350Z,17.17
2023-06-17T07:17:42.274Z,17.17
2023-06-17T07:18:42.332Z,17.17
2023-06-17T07:19:42.354Z,17.20
2023-06-17T07:20:44.235Z,17.25
2023-06-17T07:21:42.504Z,17.28
2023-06-17T07:22:42.613Z,17.33
2023-06-17T07:32:49.423Z,17.30
2023-06-17T07:33:49.726Z,17.32
2023-06-17T07:34:49.784Z,17.36
2023-06-17T07:35:50.608Z,17.41
2023-06-17T07:36:49.955Z,17.46
2023-06-17T07:37:50.002Z,17.53
2023-06-17T07:38:50.081Z,17.57
2023-06-17T07:39:50.165Z,17.66
2023-06-17T07:40:50.212Z,17.69
2023-06-17T07:41:50.298Z,17.76
2023-06-17T07:42:50.440Z,17.82
2023-06-17T07:43:50.422Z,17.85
2023-06-17T08:08:11.256Z,18.21
2023-06-17T08:11:01.152Z,18.33
2023-06-17T08:25:17.787Z,18.82
2023-06-17T08:31:53.839Z,18.95
2023-06-17T08:50:20.976Z,19.47
2023-06-17T08:51:21.891Z,19.51
2023-06-17T08:52:37.616Z,19.50
2023-06-17T08:53:21.974Z,19.57
2023-06-17T08:54:22.054Z,19.58
2023-06-17T08:55:22.222Z,19.65
2023-06-17T08:56:22.165Z,19.72
2023-06-17T08:57:22.779Z,19.79
2023-06-17T08:58:22.337Z,19.88
2023-06-17T08:59:22.424Z,19.95
2023-06-17T09:00:22.694Z,20.05
2023-06-17T09:01:22.570Z,20.12
2023-06-17T09:03:47.345Z,20.23
2023-06-17T09:04:48.576Z,20.27
2023-06-17T09:05:48.465Z,20.27
2023-06-17T09:06:48.629Z,20.28
2023-06-17T09:07:48.558Z,20.34
2023-06-17T09:08:48.733Z,20.35
2023-06-17T09:09:48.724Z,20.41
2023-06-17T09:10:48.869Z,20.46
2023-06-17T09:11:51.978Z,20.49
2023-06-17T09:12:48.970Z,20.51
2023-06-17T09:13:49.073Z,20.54
2023-06-17T09:14:49.180Z,20.58
2023-06-17T09:15:49.246Z,20.61
2023-06-17T09:16:49.383Z,20.66
2023-06-17T09:17:49.563Z,20.69
2023-06-17T09:18:49.488Z,20.76
2023-06-17T09:19:49.621Z,20.80
2023-06-17T09:20:49.773Z,20.83
2023-06-17T09:21:49.754Z,20.87
2023-06-17T09:22:49.847Z,20.90
2023-06-17T09:23:49.996Z,20.90
2023-06-17T09:24:49.990Z,20.91
2023-06-17T09:25:50.095Z,20.91
2023-06-17T09:26:50.252Z,20.93
2023-06-17T09:28:11.130Z,20.95
2023-06-17T09:28:50.347Z,20.98
2023-06-17T09:29:50.399Z,20.99
2023-06-17T09:31:38.537Z,20.99
2023-06-17T09:31:50.644Z,20.99
2023-06-17T09:32:50.755Z,20.99
2023-06-17T09:33:50.743Z,21.01
2023-06-17T09:34:50.855Z,21.02
2023-06-17T09:35:50.996Z,21.05
2023-06-17T09:36:51.104Z,21.05
2023-06-17T09:50:08.622Z,20.90
2023-06-17T09:53:16.205Z,21.04
2023-06-17T09:54:17.415Z,21.11
2023-06-17T09:55:17.405Z,21.17
2023-06-17T09:56:18.596Z,21.23
2023-06-17T09:57:17.505Z,21.29
2023-06-17T09:58:17.592Z,21.36
2023-06-17T09:59:17.649Z,21.39
2023-06-17T10:00:17.918Z,21.44
2023-06-17T10:01:17.774Z,21.48
2023-06-17T10:02:17.890Z,21.53
2023-06-17T10:03:18.042Z,21.56
2023-06-17T10:04:18.119Z,21.57
2023-06-17T10:05:18.092Z,21.61
2023-06-17T10:06:18.241Z,21.64
2023-06-17T10:07:18.356Z,21.67
2023-06-17T10:08:18.323Z,21.71
2023-06-17T10:09:18.461Z,21.74
2023-06-17T10:10:18.779Z,21.78
2023-06-17T10:11:18.649Z,21.78
2023-06-17T10:12:18.756Z,21.81
2023-06-17T10:13:18.796Z,21.81
2023-06-17T10:14:18.919Z,21.85
2023-06-17T10:15:19.111Z,21.90
2023-06-17T10:16:19.083Z,21.92
2023-06-17T10:17:19.193Z,21.95
2023-06-17T10:18:19.264Z,21.95
2023-06-17T10:19:19.410Z,21.97
2023-06-17T10:20:19.953Z,21.98
2023-06-17T10:31:44.452Z,21.92
2023-06-17T10:32:45.618Z,21.94
2023-06-17T10:33:45.638Z,22.01
2023-06-17T10:34:45.573Z,22.07
2023-06-17T10:35:45.666Z,22.12
2023-06-17T10:36:45.744Z,22.16
2023-06-17T10:37:45.843Z,22.22
2023-06-17T10:40:09.353Z,22.31
2023-06-17T10:41:09.400Z,22.34
2023-06-17T10:42:09.419Z,22.35
2023-06-17T10:43:09.488Z,22.41
2023-06-17T10:44:09.812Z,22.47
2023-06-17T10:45:09.707Z,22.50
2023-06-17T10:46:09.745Z,22.54
2023-06-17T10:47:09.736Z,22.57
2023-06-17T10:48:09.852Z,22.60
2023-06-17T10:49:09.878Z,22.62
2023-06-17T10:50:09.938Z,22.67
2023-06-17T10:51:10.028Z,22.71
2023-06-17T10:52:10.102Z,22.74
2023-06-17T10:53:10.190Z,22.77
2023-06-17T10:54:10.292Z,22.78
2023-06-17T10:55:10.406Z,22.80
2023-06-17T10:56:11.494Z,22.83
2023-06-17T10:57:10.537Z,22.83
2023-06-17T10:58:10.677Z,22.86
2023-06-17T10:59:10.707Z,22.89
2023-06-17T11:00:10.809Z,22.90
2023-06-17T11:01:10.887Z,22.94
2023-06-17T11:02:10.925Z,22.97
2023-06-17T11:03:11.081Z,22.99
2023-06-17T11:04:11.149Z,23.02
2023-06-17T11:05:11.172Z,23.05
2023-06-17T11:06:11.331Z,23.09
2023-06-17T11:08:33.221Z,23.11
2023-06-17T11:09:33.436Z,23.12
2023-06-17T11:10:33.549Z,23.11
2023-06-17T11:11:33.503Z,23.11
2023-06-17T11:12:33.662Z,23.12
2023-06-17T11:13:33.848Z,23.12
2023-06-17T11:15:59.152Z,23.17
2023-06-17T11:17:00.253Z,23.17
2023-06-17T11:18:00.597Z,23.19
2023-06-17T11:19:00.404Z,23.22
2023-06-17T11:20:00.365Z,23.23
2023-06-17T11:21:00.403Z,23.24
2023-06-17T11:22:00.507Z,23.27
2023-06-17T11:23:00.565Z,23.31
2023-06-17T11:24:00.708Z,23.32
2023-06-17T11:25:00.729Z,23.38
2023-06-17T11:26:00.785Z,23.42
2023-06-17T11:27:00.888Z,23.45
2023-06-17T11:28:00.991Z,23.49
2023-06-17T11:29:01.074Z,23.52
2023-06-17T11:31:26.811Z,23.50
2023-06-17T11:32:27.699Z,23.50
2023-06-17T11:33:27.844Z,23.49
2023-06-17T11:34:27.791Z,23.50
2023-06-17T11:35:27.852Z,23.53
2023-06-17T11:36:27.911Z,23.57
2023-06-17T11:37:28.095Z,23.60
2023-06-17T11:38:28.086Z,23.61
2023-06-17T11:39:28.166Z,23.62
2023-06-17T11:40:28.234Z,23.65
2023-06-17T11:41:28.304Z,23.67
2023-06-17T11:42:28.347Z,23.68
2023-06-17T11:43:28.494Z,23.68
2023-06-17T11:44:28.594Z,23.67
2023-06-17T11:45:28.701Z,23.68
2023-06-17T11:46:28.800Z,23.67
2023-06-17T11:47:28.849Z,23.70
2023-06-17T11:48:28.891Z,23.71
2023-06-17T11:49:28.986Z,23.76
2023-06-17T11:50:29.060Z,23.79
2023-06-17T11:51:29.990Z,23.82
2023-06-17T11:52:29.207Z,23.86
2023-06-17T11:53:29.300Z,23.89
2023-06-17T11:54:29.425Z,23.90
2023-06-17T11:58:06.584Z,23.80
2023-06-17T11:59:07.695Z,23.79
2023-06-17T12:00:07.750Z,23.76
2023-06-17T12:01:07.845Z,23.72
2023-06-17T12:02:07.935Z,23.72
2023-06-17T12:05:08.313Z,23.68
2023-06-17T12:06:09.358Z,23.68
2023-06-17T12:07:09.386Z,23.68
2023-06-17T12:08:09.487Z,23.71
2023-06-17T12:09:09.538Z,23.77
2023-06-17T12:10:09.649Z,23.83
2023-06-17T12:11:09.780Z,23.89
2023-06-17T12:12:09.780Z,23.95
2023-06-17T12:13:09.862Z,23.98
2023-06-17T12:14:09.937Z,24.02
2023-06-17T12:15:16.362Z,24.04
2023-06-17T12:16:10.120Z,24.07
2023-06-17T12:17:10.204Z,24.10
2023-06-17T12:18:10.303Z,24.12
2023-06-17T12:19:10.319Z,24.16
2023-06-17T12:20:10.417Z,24.19
2023-06-17T12:21:10.532Z,24.23
2023-06-17T12:22:10.591Z,24.27
2023-06-17T12:23:10.647Z,24.32
2023-06-17T12:24:10.883Z,24.41
2023-06-17T12:25:10.824Z,24.44
2023-06-17T12:26:10.955Z,24.45
2023-06-17T12:27:11.033Z,24.45
2023-06-17T12:28:11.641Z,24.49
2023-06-17T12:29:20.348Z,24.50
2023-06-17T12:30:11.286Z,24.49
2023-06-17T12:31:11.366Z,24.49
2023-06-17T12:34:17.603Z,24.50
2023-06-17T12:35:19.135Z,24.50
2023-06-17T12:36:18.434Z,24.52
2023-06-17T12:37:18.471Z,24.52
2023-06-17T12:38:18.558Z,24.53
2023-06-17T12:39:18.670Z,24.53
2023-06-17T12:40:18.729Z,24.53
2023-06-17T12:41:18.815Z,24.53
2023-06-17T12:42:18.909Z,24.54
2023-06-17T12:43:18.928Z,24.56
2023-06-17T12:44:19.117Z,24.59
2023-06-17T12:45:19.210Z,24.57
2023-06-17T12:46:19.209Z,24.57
2023-06-17T12:47:19.250Z,24.59
2023-06-17T12:48:19.302Z,24.60
2023-06-17T12:49:19.397Z,24.61
2023-06-17T12:50:19.467Z,24.63
2023-06-17T12:51:19.547Z,24.63
2023-06-17T12:52:19.622Z,24.68
2023-06-17T12:53:19.682Z,24.71
2023-06-17T12:54:19.741Z,24.73
2023-06-17T12:55:20.215Z,24.75
2023-06-17T12:56:19.953Z,24.77
2023-06-17T12:57:20.055Z,24.79
2023-06-17T12:58:20.101Z,24.80
2023-06-17T12:59:20.228Z,24.85
2023-06-17T13:00:20.293Z,24.88
2023-06-17T13:01:20.436Z,24.90
2023-06-17T13:02:20.455Z,24.92
2023-06-17T13:03:20.508Z,24.94
2023-06-17T13:04:20.626Z,24.95
2023-06-17T13:05:21.032Z,24.98
2023-06-17T13:06:20.856Z,24.97
2023-06-17T13:07:20.892Z,24.98
2023-06-17T13:08:20.976Z,25.02
2023-06-17T13:09:21.060Z,25.01
2023-06-17T13:10:21.114Z,25.06
2023-06-17T13:11:21.242Z,25.07
2023-06-17T13:12:21.301Z,25.12
2023-06-17T13:13:21.382Z,25.16
2023-06-17T13:14:22.727Z,25.19
2023-06-17T13:15:21.907Z,25.22
2023-06-17T13:16:21.679Z,25.25
2023-06-17T13:17:21.738Z,25.27
2023-06-17T13:18:21.825Z,25.25
2023-06-17T13:19:21.895Z,25.24
2023-06-17T13:20:22.116Z,25.24
2023-06-17T13:21:22.102Z,25.24
2023-06-17T13:22:22.229Z,25.25
2023-06-17T13:23:22.235Z,25.27
2023-06-17T13:24:22.354Z,25.31
2023-06-17T13:25:22.355Z,25.34
2023-06-17T13:26:22.505Z,25.35
2023-06-17T13:27:22.540Z,25.37
2023-06-17T13:28:22.597Z,25.37
2023-06-17T13:29:22.680Z,25.38
2023-06-17T13:30:22.943Z,25.39
2023-06-17T13:31:22.853Z,25.39
2023-06-17T13:32:22.886Z,25.43
2023-06-17T13:33:22.935Z,25.43
2023-06-17T13:34:23.064Z,25.44
2023-06-17T13:35:23.510Z,25.44
2023-06-17T13:36:23.253Z,25.44
2023-06-17T13:37:23.272Z,25.42
2023-06-17T13:38:23.396Z,25.39
2023-06-17T13:39:23.489Z,25.39
2023-06-17T13:40:23.827Z,25.37
2023-06-17T13:41:23.626Z,25.37
2023-06-17T13:42:23.729Z,25.42
2023-06-17T13:43:23.801Z,25.43
2023-06-17T13:44:23.911Z,25.47
2023-06-17T13:45:24.108Z,25.54
2023-06-17T13:46:24.122Z,25.59
2023-06-17T13:47:24.177Z,25.62
2023-06-17T13:48:24.220Z,25.65
2023-06-17T13:49:24.255Z,25.68
2023-06-17T13:50:24.566Z,25.69
2023-06-17T13:51:24.512Z,25.71
2023-06-17T13:52:24.529Z,25.69
2023-06-17T13:53:24.615Z,25.71
2023-06-17T13:54:24.665Z,25.71
2023-06-17T13:55:24.765Z,25.71
2023-06-17T13:56:24.909Z,25.71
2023-06-17T13:57:24.947Z,25.71
2023-06-17T13:58:25.020Z,25.71
2023-06-17T13:59:25.100Z,25.69
2023-06-17T14:00:25.275Z,25.72
2023-06-17T14:01:25.365Z,25.69
2023-06-17T14:02:25.345Z,25.69
2023-06-17T14:03:25.413Z,25.69
2023-06-17T14:04:25.666Z,25.68
2023-06-17T14:05:25.555Z,25.68
2023-06-17T14:06:25.663Z,25.69
2023-06-17T14:07:25.710Z,25.71
2023-06-17T14:08:25.801Z,25.69
2023-06-17T14:09:25.844Z,25.69
2023-06-17T14:10:25.998Z,25.68
2023-06-17T14:11:26.037Z,25.65
2023-06-17T14:12:26.098Z,25.64
2023-06-17T14:13:26.237Z,25.59
2023-06-17T14:14:26.300Z,25.57
2023-06-17T14:15:26.384Z,25.59
2023-06-17T14:16:26.506Z,25.61
2023-06-17T14:17:26.599Z,25.62
2023-06-17T14:18:26.659Z,25.64
2023-06-17T14:19:26.759Z,25.64
2023-06-17T14:20:26.815Z,25.65
2023-06-17T14:21:26.942Z,25.65
2023-06-17T14:22:27.017Z,25.67
2023-06-17T14:23:27.085Z,25.68
2023-06-17T14:24:27.237Z,25.69
2023-06-17T14:25:27.233Z,25.74
2023-06-17T14:26:27.358Z,25.75
2023-06-17T14:27:27.415Z,25.77
2023-06-17T14:28:27.524Z,25.79
2023-06-17T14:29:27.608Z,25.79
2023-06-17T14:30:27.723Z,25.77
2023-06-17T14:31:27.820Z,25.77
2023-06-17T14:32:27.925Z,25.79
2023-06-17T14:33:27.943Z,25.80
2023-06-17T14:34:28.055Z,25.83
2023-06-17T14:35:28.159Z,25.84
2023-06-17T14:36:28.262Z,25.86
2023-06-17T14:37:28.367Z,25.84
2023-06-17T14:38:28.455Z,25.86
2023-06-17T14:39:28.516Z,25.86
2023-06-17T14:40:28.576Z,25.87
2023-06-17T14:41:30.134Z,25.87
2023-06-17T14:42:28.773Z,25.86
2023-06-17T14:43:28.836Z,25.84
2023-06-17T14:44:28.957Z,25.86
2023-06-17T14:45:29.058Z,25.86
2023-06-17T14:46:29.141Z,25.89
2023-06-17T14:47:29.256Z,25.89
2023-06-17T14:48:29.263Z,25.87
2023-06-17T14:49:29.323Z,25.90
2023-06-17T14:50:29.394Z,25.87
2023-06-17T14:51:29.457Z,25.86
2023-06-17T14:52:29.565Z,25.86
2023-06-17T14:53:29.589Z,25.84
2023-06-17T14:54:29.711Z,25.84
2023-06-17T14:55:29.790Z,25.83
2023-06-17T14:56:29.870Z,25.83
2023-06-17T14:57:31.513Z,25.82
2023-06-17T14:58:29.992Z,25.82
2023-06-17T14:59:30.085Z,25.82
2023-06-17T15:00:30.167Z,25.82
2023-06-17T15:01:30.270Z,25.80
2023-06-17T15:02:30.434Z,25.80
2023-06-17T15:03:30.521Z,25.79
2023-06-17T15:04:30.471Z,25.79
2023-06-17T15:05:30.550Z,25.82
2023-06-17T15:06:30.627Z,25.83
2023-06-17T15:07:31.518Z,25.83
2023-06-17T15:08:30.798Z,25.84
2023-06-17T15:09:30.910Z,25.84
2023-06-17T15:10:30.927Z,25.83
2023-06-17T15:11:31.050Z,25.84
2023-06-17T15:12:31.111Z,25.84
2023-06-17T15:13:31.180Z,25.84
2023-06-17T15:14:31.286Z,25.86
2023-06-17T15:15:31.351Z,25.87
2023-06-17T15:16:31.506Z,25.89
2023-06-17T15:17:31.552Z,25.91
2023-06-17T15:18:31.604Z,25.93
2023-06-17T15:19:31.684Z,25.97
2023-06-17T15:20:31.878Z,25.97
2023-06-17T15:21:31.810Z,25.97
2023-06-17T15:22:31.915Z,25.94
2023-06-17T15:23:31.955Z,25.94
2023-06-17T15:24:32.176Z,25.94
2023-06-17T15:25:32.123Z,25.94
2023-06-17T15:26:32.219Z,25.97
2023-06-17T15:27:32.308Z,25.94
2023-06-17T15:28:32.415Z,25.98
2023-06-17T15:29:32.488Z,25.98
2023-06-17T15:30:32.560Z,25.98
2023-06-17T15:31:32.635Z,25.99
2023-06-17T15:32:32.767Z,25.98
2023-06-17T15:33:32.795Z,26.01
2023-06-17T15:34:32.924Z,26.01